sensor_id;sensor_type;location;lat;lon;timestamp;P1;durP1;ratioP1;P2;durP2;ratioP2
80293;SDS011;69594;43.516;1.498;2024-02-04T00:00:29;34.42;;;18.25;;
80293;SDS011;69594;43.516;1.498;2024-02-04T00:02:54;34.83;;;17.07;;
80293;SDS011;69594;43.516;1.498;2024-02-04T00:05:20;37.78;;;17.60;;
80293;SDS011;69594;43.516;1.498;2024-02-04T00:07:46;38.47;;;18.13;;
80293;SDS011;69594;43.516;1.498;2024-02-04T00:10:12;38.58;;;18.88;;
80293;SDS011;69594;43.516;1.498;2024-02-04T00:12:38;40.20;;;19.27;;
80293;SDS011;69594;43.516;1.498;2024-02-04T00:15:04;35.70;;;17.70;;
80293;SDS011;69594;43.516;1.498;2024-02-04T00:17:30;38.97;;;18.75;;
80293;SDS011;69594;43.516;1.498;2024-02-04T00:19:58;38.28;;;18.17;;
80293;SDS011;69594;43.516;1.498;2024-02-04T00:22:30;39.42;;;18.90;;
80293;SDS011;69594;43.516;1.498;2024-02-04T00:24:55;39.13;;;17.17;;
80293;SDS011;69594;43.516;1.498;2024-02-04T00:27:26;37.28;;;17.75;;
80293;SDS011;69594;43.516;1.498;2024-02-04T00:29:52;35.70;;;18.15;;
80293;SDS011;69594;43.516;1.498;2024-02-04T00:32:18;39.07;;;18.17;;
80293;SDS011;69594;43.516;1.498;2024-02-04T00:34:43;36.95;;;18.08;;
80293;SDS011;69594;43.516;1.498;2024-02-04T00:37:09;37.63;;;18.23;;
80293;SDS011;69594;43.516;1.498;2024-02-04T00:39:35;35.73;;;16.87;;
80293;SDS011;69594;43.516;1.498;2024-02-04T00:42:01;41.78;;;19.08;;
80293;SDS011;69594;43.516;1.498;2024-02-04T00:44:26;39.40;;;17.65;;
80293;SDS011;69594;43.516;1.498;2024-02-04T00:46:52;41.17;;;18.48;;
80293;SDS011;69594;43.516;1.498;2024-02-04T00:49:18;41.67;;;18.90;;
80293;SDS011;69594;43.516;1.498;2024-02-04T00:51:43;46.90;;;19.73;;
80293;SDS011;69594;43.516;1.498;2024-02-04T00:54:09;40.37;;;18.63;;
80293;SDS011;69594;43.516;1.498;2024-02-04T00:56:35;45.72;;;19.58;;
80293;SDS011;69594;43.516;1.498;2024-02-04T00:59:03;41.22;;;18.35;;
80293;SDS011;69594;43.516;1.498;2024-02-04T01:01:28;42.07;;;17.17;;
80293;SDS011;69594;43.516;1.498;2024-02-04T01:03:54;43.08;;;19.38;;
80293;SDS011;69594;43.516;1.498;2024-02-04T01:06:20;43.30;;;18.30;;
80293;SDS011;69594;43.516;1.498;2024-02-04T01:08:46;42.40;;;18.90;;
80293;SDS011;69594;43.516;1.498;2024-02-04T01:11:11;45.73;;;20.10;;
80293;SDS011;69594;43.516;1.498;2024-02-04T01:13:37;41.72;;;18.88;;
80293;SDS011;69594;43.516;1.498;2024-02-04T01:16:03;42.50;;;18.43;;
80293;SDS011;69594;43.516;1.498;2024-02-04T01:18:28;45.17;;;18.75;;
80293;SDS011;69594;43.516;1.498;2024-02-04T01:20:56;41.67;;;18.80;;
80293;SDS011;69594;43.516;1.498;2024-02-04T01:23:22;44.25;;;18.40;;
80293;SDS011;69594;43.516;1.498;2024-02-04T01:25:48;37.83;;;17.10;;
80293;SDS011;69594;43.516;1.498;2024-02-04T01:28:13;37.92;;;17.02;;
80293;SDS011;69594;43.516;1.498;2024-02-04T01:30:39;38.13;;;17.67;;
80293;SDS011;69594;43.516;1.498;2024-02-04T01:33:05;37.92;;;18.08;;
80293;SDS011;69594;43.516;1.498;2024-02-04T01:35:30;41.43;;;17.43;;
80293;SDS011;69594;43.516;1.498;2024-02-04T01:37:56;39.50;;;17.98;;
80293;SDS011;69594;43.516;1.498;2024-02-04T01:40:21;38.00;;;17.20;;
80293;SDS011;69594;43.516;1.498;2024-02-04T01:42:47;34.67;;;16.53;;
80293;SDS011;69594;43.516;1.498;2024-02-04T01:45:14;39.38;;;16.90;;
80293;SDS011;69594;43.516;1.498;2024-02-04T01:47:39;38.15;;;18.67;;
80293;SDS011;69594;43.516;1.498;2024-02-04T01:50:05;37.07;;;17.63;;
80293;SDS011;69594;43.516;1.498;2024-02-04T01:52:32;36.38;;;17.88;;
80293;SDS011;69594;43.516;1.498;2024-02-04T01:55:00;40.58;;;18.23;;
80293;SDS011;69594;43.516;1.498;2024-02-04T01:57:30;35.00;;;16.83;;
80293;SDS011;69594;43.516;1.498;2024-02-04T01:59:56;39.60;;;18.20;;
80293;SDS011;69594;43.516;1.498;2024-02-04T02:02:23;37.42;;;17.73;;
80293;SDS011;69594;43.516;1.498;2024-02-04T02:04:50;36.65;;;17.38;;
80293;SDS011;69594;43.516;1.498;2024-02-04T02:07:17;38.20;;;17.60;;
80293;SDS011;69594;43.516;1.498;2024-02-04T02:09:45;36.10;;;17.33;;
80293;SDS011;69594;43.516;1.498;2024-02-04T02:12:16;38.10;;;18.77;;
80293;SDS011;69594;43.516;1.498;2024-02-04T02:15:07;42.25;;;18.15;;
80293;SDS011;69594;43.516;1.498;2024-02-04T02:17:40;38.72;;;17.40;;
80293;SDS011;69594;43.516;1.498;2024-02-04T02:20:21;40.92;;;17.95;;
80293;SDS011;69594;43.516;1.498;2024-02-04T02:25:38;41.90;;;17.67;;
80293;SDS011;69594;43.516;1.498;2024-02-04T02:28:05;39.90;;;17.92;;
80293;SDS011;69594;43.516;1.498;2024-02-04T02:30:31;43.90;;;19.13;;
80293;SDS011;69594;43.516;1.498;2024-02-04T02:32:56;37.67;;;17.70;;
80293;SDS011;69594;43.516;1.498;2024-02-04T02:35:23;43.67;;;19.50;;
80293;SDS011;69594;43.516;1.498;2024-02-04T02:40:46;40.67;;;17.95;;
80293;SDS011;69594;43.516;1.498;2024-02-04T02:43:16;45.77;;;18.80;;
80293;SDS011;69594;43.516;1.498;2024-02-04T02:45:44;42.75;;;18.67;;
80293;SDS011;69594;43.516;1.498;2024-02-04T02:48:10;46.90;;;20.60;;
80293;SDS011;69594;43.516;1.498;2024-02-04T02:50:37;44.47;;;18.33;;
80293;SDS011;69594;43.516;1.498;2024-02-04T02:53:03;43.67;;;19.55;;
80293;SDS011;69594;43.516;1.498;2024-02-04T02:55:29;45.80;;;18.53;;
80293;SDS011;69594;43.516;1.498;2024-02-04T02:57:55;43.67;;;18.55;;
80293;SDS011;69594;43.516;1.498;2024-02-04T03:00:21;44.50;;;20.00;;
80293;SDS011;69594;43.516;1.498;2024-02-04T03:02:47;45.17;;;19.80;;
80293;SDS011;69594;43.516;1.498;2024-02-04T03:05:17;45.38;;;19.17;;
80293;SDS011;69594;43.516;1.498;2024-02-04T03:07:43;46.33;;;18.95;;
80293;SDS011;69594;43.516;1.498;2024-02-04T03:10:09;39.97;;;16.63;;
80293;SDS011;69594;43.516;1.498;2024-02-04T03:12:35;45.60;;;19.15;;
80293;SDS011;69594;43.516;1.498;2024-02-04T03:15:00;42.50;;;19.20;;
80293;SDS011;69594;43.516;1.498;2024-02-04T03:17:26;40.30;;;17.52;;
80293;SDS011;69594;43.516;1.498;2024-02-04T03:19:52;45.37;;;18.37;;
80293;SDS011;69594;43.516;1.498;2024-02-04T03:22:19;39.70;;;17.15;;
80293;SDS011;69594;43.516;1.498;2024-02-04T03:24:47;42.20;;;16.98;;
80293;SDS011;69594;43.516;1.498;2024-02-04T03:27:18;41.55;;;17.52;;
80293;SDS011;69594;43.516;1.498;2024-02-04T03:29:44;38.45;;;16.17;;
80293;SDS011;69594;43.516;1.498;2024-02-04T03:32:13;35.83;;;15.97;;
80293;SDS011;69594;43.516;1.498;2024-02-04T03:34:40;42.03;;;17.70;;
80293;SDS011;69594;43.516;1.498;2024-02-04T03:37:07;38.42;;;16.33;;
80293;SDS011;69594;43.516;1.498;2024-02-04T03:39:32;41.30;;;17.40;;
80293;SDS011;69594;43.516;1.498;2024-02-04T03:41:58;41.97;;;17.25;;
80293;SDS011;69594;43.516;1.498;2024-02-04T03:44:24;37.17;;;15.40;;
80293;SDS011;69594;43.516;1.498;2024-02-04T03:46:49;38.70;;;16.80;;
80293;SDS011;69594;43.516;1.498;2024-02-04T03:49:16;38.57;;;16.20;;
80293;SDS011;69594;43.516;1.498;2024-02-04T03:51:42;41.65;;;14.73;;
80293;SDS011;69594;43.516;1.498;2024-02-04T03:54:07;35.95;;;14.48;;
80293;SDS011;69594;43.516;1.498;2024-02-04T03:56:33;38.73;;;15.17;;
80293;SDS011;69594;43.516;1.498;2024-02-04T03:58:59;39.05;;;15.55;;
80293;SDS011;69594;43.516;1.498;2024-02-04T04:01:24;36.53;;;14.90;;
80293;SDS011;69594;43.516;1.498;2024-02-04T04:03:50;35.85;;;15.82;;
80293;SDS011;69594;43.516;1.498;2024-02-04T04:06:16;35.67;;;14.20;;
80293;SDS011;69594;43.516;1.498;2024-02-04T04:08:42;35.83;;;14.38;;
80293;SDS011;69594;43.516;1.498;2024-02-04T04:11:08;33.60;;;14.27;;
80293;SDS011;69594;43.516;1.498;2024-02-04T04:13:35;37.97;;;16.02;;
80293;SDS011;69594;43.516;1.498;2024-02-04T04:16:01;37.60;;;14.88;;
80293;SDS011;69594;43.516;1.498;2024-02-04T04:18:28;32.00;;;15.32;;
80293;SDS011;69594;43.516;1.498;2024-02-04T04:20:53;33.78;;;14.50;;
80293;SDS011;69594;43.516;1.498;2024-02-04T04:23:19;36.77;;;14.33;;
80293;SDS011;69594;43.516;1.498;2024-02-04T04:25:45;33.63;;;15.68;;
80293;SDS011;69594;43.516;1.498;2024-02-04T04:28:10;37.40;;;14.67;;
80293;SDS011;69594;43.516;1.498;2024-02-04T04:30:36;34.78;;;14.73;;
80293;SDS011;69594;43.516;1.498;2024-02-04T04:33:02;31.60;;;14.00;;
80293;SDS011;69594;43.516;1.498;2024-02-04T04:35:27;36.05;;;13.98;;
80293;SDS011;69594;43.516;1.498;2024-02-04T04:37:53;36.03;;;16.40;;
80293;SDS011;69594;43.516;1.498;2024-02-04T04:40:19;35.67;;;14.80;;
80293;SDS011;69594;43.516;1.498;2024-02-04T04:42:44;37.35;;;16.35;;
80293;SDS011;69594;43.516;1.498;2024-02-04T04:45:10;38.88;;;15.20;;
80293;SDS011;69594;43.516;1.498;2024-02-04T04:47:36;36.72;;;14.55;;
80293;SDS011;69594;43.516;1.498;2024-02-04T04:50:02;39.22;;;16.73;;
80293;SDS011;69594;43.516;1.498;2024-02-04T04:52:30;41.38;;;17.25;;
80293;SDS011;69594;43.516;1.498;2024-02-04T04:54:55;39.73;;;16.57;;
80293;SDS011;69594;43.516;1.498;2024-02-04T04:57:21;41.20;;;17.35;;
80293;SDS011;69594;43.516;1.498;2024-02-04T04:59:47;38.78;;;15.13;;
80293;SDS011;69594;43.516;1.498;2024-02-04T05:02:13;41.57;;;16.93;;
80293;SDS011;69594;43.516;1.498;2024-02-04T05:04:42;42.63;;;16.60;;
80293;SDS011;69594;43.516;1.498;2024-02-04T05:07:11;40.42;;;16.35;;
80293;SDS011;69594;43.516;1.498;2024-02-04T05:09:37;39.00;;;15.63;;
80293;SDS011;69594;43.516;1.498;2024-02-04T05:12:07;38.15;;;15.40;;
80293;SDS011;69594;43.516;1.498;2024-02-04T05:14:34;41.45;;;15.90;;
80293;SDS011;69594;43.516;1.498;2024-02-04T05:17:00;40.83;;;16.70;;
80293;SDS011;69594;43.516;1.498;2024-02-04T05:19:26;42.38;;;16.02;;
80293;SDS011;69594;43.516;1.498;2024-02-04T05:21:52;39.17;;;16.30;;
80293;SDS011;69594;43.516;1.498;2024-02-04T05:24:18;40.83;;;16.52;;
80293;SDS011;69594;43.516;1.498;2024-02-04T05:26:43;39.83;;;16.93;;
80293;SDS011;69594;43.516;1.498;2024-02-04T05:29:09;37.92;;;15.57;;
80293;SDS011;69594;43.516;1.498;2024-02-04T05:31:39;42.37;;;17.07;;
80293;SDS011;69594;43.516;1.498;2024-02-04T05:34:06;40.83;;;17.38;;
80293;SDS011;69594;43.516;1.498;2024-02-04T05:36:32;46.17;;;18.40;;
80293;SDS011;69594;43.516;1.498;2024-02-04T05:39:08;40.88;;;16.60;;
80293;SDS011;69594;43.516;1.498;2024-02-04T05:41:35;42.08;;;16.88;;
80293;SDS011;69594;43.516;1.498;2024-02-04T05:44:01;42.80;;;17.60;;
80293;SDS011;69594;43.516;1.498;2024-02-04T05:46:26;44.53;;;16.83;;
80293;SDS011;69594;43.516;1.498;2024-02-04T05:48:53;44.20;;;17.50;;
80293;SDS011;69594;43.516;1.498;2024-02-04T05:51:18;44.45;;;17.50;;
80293;SDS011;69594;43.516;1.498;2024-02-04T05:53:44;45.87;;;18.23;;
80293;SDS011;69594;43.516;1.498;2024-02-04T05:56:10;41.55;;;16.17;;
80293;SDS011;69594;43.516;1.498;2024-02-04T05:58:35;47.10;;;17.33;;
80293;SDS011;69594;43.516;1.498;2024-02-04T06:01:02;43.67;;;17.35;;
80293;SDS011;69594;43.516;1.498;2024-02-04T06:03:27;38.55;;;15.77;;
80293;SDS011;69594;43.516;1.498;2024-02-04T06:05:53;42.35;;;17.30;;
80293;SDS011;69594;43.516;1.498;2024-02-04T06:08:19;42.57;;;17.03;;
80293;SDS011;69594;43.516;1.498;2024-02-04T06:10:44;37.85;;;15.98;;
80293;SDS011;69594;43.516;1.498;2024-02-04T06:13:10;38.22;;;14.70;;
80293;SDS011;69594;43.516;1.498;2024-02-04T06:15:36;35.30;;;15.10;;
80293;SDS011;69594;43.516;1.498;2024-02-04T06:18:02;38.87;;;15.93;;
80293;SDS011;69594;43.516;1.498;2024-02-04T06:20:27;36.22;;;15.30;;
80293;SDS011;69594;43.516;1.498;2024-02-04T06:22:53;38.53;;;14.10;;
80293;SDS011;69594;43.516;1.498;2024-02-04T06:25:19;40.65;;;16.77;;
80293;SDS011;69594;43.516;1.498;2024-02-04T06:27:44;41.53;;;15.53;;
80293;SDS011;69594;43.516;1.498;2024-02-04T06:30:10;41.70;;;16.53;;
80293;SDS011;69594;43.516;1.498;2024-02-04T06:32:36;39.28;;;16.10;;
80293;SDS011;69594;43.516;1.498;2024-02-04T06:35:03;40.30;;;15.23;;
80293;SDS011;69594;43.516;1.498;2024-02-04T06:37:28;44.92;;;17.65;;
80293;SDS011;69594;43.516;1.498;2024-02-04T06:39:54;42.87;;;16.67;;
80293;SDS011;69594;43.516;1.498;2024-02-04T06:42:20;38.17;;;15.85;;
80293;SDS011;69594;43.516;1.498;2024-02-04T06:44:45;42.10;;;17.17;;
80293;SDS011;69594;43.516;1.498;2024-02-04T06:47:11;41.63;;;16.52;;
80293;SDS011;69594;43.516;1.498;2024-02-04T06:49:39;40.40;;;16.07;;
80293;SDS011;69594;43.516;1.498;2024-02-04T06:52:08;43.00;;;16.90;;
80293;SDS011;69594;43.516;1.498;2024-02-04T06:54:34;39.85;;;15.75;;
80293;SDS011;69594;43.516;1.498;2024-02-04T06:56:59;40.37;;;15.67;;
80293;SDS011;69594;43.516;1.498;2024-02-04T06:59:25;40.47;;;15.43;;
80293;SDS011;69594;43.516;1.498;2024-02-04T07:01:51;36.65;;;15.02;;
80293;SDS011;69594;43.516;1.498;2024-02-04T07:04:18;41.58;;;15.98;;
80293;SDS011;69594;43.516;1.498;2024-02-04T07:06:46;43.13;;;16.10;;
80293;SDS011;69594;43.516;1.498;2024-02-04T07:09:13;41.92;;;16.17;;
80293;SDS011;69594;43.516;1.498;2024-02-04T07:11:38;49.22;;;16.90;;
80293;SDS011;69594;43.516;1.498;2024-02-04T07:14:04;46.33;;;17.83;;
80293;SDS011;69594;43.516;1.498;2024-02-04T07:16:31;41.15;;;16.15;;
80293;SDS011;69594;43.516;1.498;2024-02-04T07:18:57;42.95;;;16.73;;
80293;SDS011;69594;43.516;1.498;2024-02-04T07:21:22;46.40;;;15.70;;
80293;SDS011;69594;43.516;1.498;2024-02-04T07:23:48;43.75;;;17.75;;
80293;SDS011;69594;43.516;1.498;2024-02-04T07:26:14;50.23;;;17.63;;
80293;SDS011;69594;43.516;1.498;2024-02-04T07:28:39;48.07;;;18.67;;
80293;SDS011;69594;43.516;1.498;2024-02-04T07:31:05;47.35;;;17.55;;
80293;SDS011;69594;43.516;1.498;2024-02-04T07:33:30;45.13;;;16.27;;
80293;SDS011;69594;43.516;1.498;2024-02-04T07:35:56;49.28;;;18.90;;
80293;SDS011;69594;43.516;1.498;2024-02-04T07:38:22;46.90;;;17.10;;
80293;SDS011;69594;43.516;1.498;2024-02-04T07:40:47;51.57;;;19.53;;
80293;SDS011;69594;43.516;1.498;2024-02-04T07:43:13;45.95;;;17.48;;
80293;SDS011;69594;43.516;1.498;2024-02-04T07:45:39;48.53;;;18.30;;
80293;SDS011;69594;43.516;1.498;2024-02-04T07:48:04;40.75;;;16.50;;
80293;SDS011;69594;43.516;1.498;2024-02-04T07:50:30;42.40;;;17.80;;
80293;SDS011;69594;43.516;1.498;2024-02-04T07:52:56;44.88;;;16.92;;
80293;SDS011;69594;43.516;1.498;2024-02-04T07:55:21;41.17;;;15.77;;
80293;SDS011;69594;43.516;1.498;2024-02-04T07:57:47;39.20;;;15.18;;
80293;SDS011;69594;43.516;1.498;2024-02-04T08:00:13;36.10;;;14.00;;
80293;SDS011;69594;43.516;1.498;2024-02-04T08:02:39;41.97;;;16.30;;
80293;SDS011;69594;43.516;1.498;2024-02-04T08:05:05;42.03;;;15.73;;
80293;SDS011;69594;43.516;1.498;2024-02-04T08:07:31;45.88;;;16.58;;
80293;SDS011;69594;43.516;1.498;2024-02-04T08:09:57;44.08;;;16.05;;
80293;SDS011;69594;43.516;1.498;2024-02-04T08:12:23;49.08;;;18.35;;
80293;SDS011;69594;43.516;1.498;2024-02-04T08:14:49;40.50;;;16.47;;
80293;SDS011;69594;43.516;1.498;2024-02-04T08:17:15;44.97;;;16.00;;
80293;SDS011;69594;43.516;1.498;2024-02-04T08:19:41;51.73;;;17.87;;
80293;SDS011;69594;43.516;1.498;2024-02-04T08:22:06;45.25;;;16.17;;
80293;SDS011;69594;43.516;1.498;2024-02-04T08:24:32;43.33;;;16.17;;
80293;SDS011;69594;43.516;1.498;2024-02-04T08:26:58;42.53;;;15.20;;
80293;SDS011;69594;43.516;1.498;2024-02-04T08:29:24;40.60;;;16.17;;
80293;SDS011;69594;43.516;1.498;2024-02-04T08:31:52;43.73;;;16.60;;
80293;SDS011;69594;43.516;1.498;2024-02-04T08:34:17;40.58;;;15.88;;
80293;SDS011;69594;43.516;1.498;2024-02-04T08:36:45;47.10;;;17.35;;
80293;SDS011;69594;43.516;1.498;2024-02-04T08:39:11;42.53;;;16.20;;
80293;SDS011;69594;43.516;1.498;2024-02-04T08:41:37;44.00;;;17.05;;
80293;SDS011;69594;43.516;1.498;2024-02-04T08:44:02;50.53;;;17.60;;
80293;SDS011;69594;43.516;1.498;2024-02-04T08:46:28;47.03;;;16.23;;
80293;SDS011;69594;43.516;1.498;2024-02-04T08:48:54;58.57;;;17.67;;
80293;SDS011;69594;43.516;1.498;2024-02-04T08:51:19;55.97;;;18.00;;
80293;SDS011;69594;43.516;1.498;2024-02-04T08:53:45;50.33;;;15.83;;
80293;SDS011;69594;43.516;1.498;2024-02-04T08:56:11;43.88;;;16.67;;
80293;SDS011;69594;43.516;1.498;2024-02-04T08:58:36;43.87;;;15.73;;
80293;SDS011;69594;43.516;1.498;2024-02-04T09:01:05;47.95;;;17.38;;
80293;SDS011;69594;43.516;1.498;2024-02-04T09:03:31;44.90;;;16.15;;
80293;SDS011;69594;43.516;1.498;2024-02-04T09:05:58;46.65;;;17.45;;
80293;SDS011;69594;43.516;1.498;2024-02-04T09:08:24;44.10;;;16.60;;
80293;SDS011;69594;43.516;1.498;2024-02-04T09:10:49;43.43;;;16.03;;
80293;SDS011;69594;43.516;1.498;2024-02-04T09:13:15;41.28;;;16.63;;
80293;SDS011;69594;43.516;1.498;2024-02-04T09:15:40;39.33;;;16.13;;
80293;SDS011;69594;43.516;1.498;2024-02-04T09:18:07;45.35;;;18.17;;
80293;SDS011;69594;43.516;1.498;2024-02-04T09:20:32;56.93;;;19.10;;
80293;SDS011;69594;43.516;1.498;2024-02-04T09:22:58;47.10;;;16.85;;
80293;SDS011;69594;43.516;1.498;2024-02-04T09:25:27;41.60;;;15.40;;
80293;SDS011;69594;43.516;1.498;2024-02-04T09:27:52;45.17;;;18.10;;
80293;SDS011;69594;43.516;1.498;2024-02-04T09:30:18;44.63;;;17.20;;
80293;SDS011;69594;43.516;1.498;2024-02-04T09:32:44;44.60;;;16.20;;
80293;SDS011;69594;43.516;1.498;2024-02-04T09:35:09;46.33;;;15.77;;
80293;SDS011;69594;43.516;1.498;2024-02-04T09:37:35;39.88;;;15.60;;
80293;SDS011;69594;43.516;1.498;2024-02-04T09:40:01;34.57;;;14.33;;
80293;SDS011;69594;43.516;1.498;2024-02-04T09:42:26;36.90;;;14.63;;
80293;SDS011;69594;43.516;1.498;2024-02-04T09:44:53;42.60;;;15.50;;
80293;SDS011;69594;43.516;1.498;2024-02-04T09:47:20;39.47;;;15.27;;
80293;SDS011;69594;43.516;1.498;2024-02-04T09:49:46;41.42;;;16.17;;
80293;SDS011;69594;43.516;1.498;2024-02-04T09:52:12;34.75;;;14.48;;
80293;SDS011;69594;43.516;1.498;2024-02-04T09:54:43;32.38;;;13.55;;
80293;SDS011;69594;43.516;1.498;2024-02-04T09:57:20;37.35;;;14.75;;
80293;SDS011;69594;43.516;1.498;2024-02-04T09:59:46;35.88;;;14.95;;
80293;SDS011;69594;43.516;1.498;2024-02-04T10:02:13;35.25;;;13.50;;
80293;SDS011;69594;43.516;1.498;2024-02-04T10:04:38;37.45;;;14.52;;
80293;SDS011;69594;43.516;1.498;2024-02-04T10:07:04;32.23;;;14.17;;
80293;SDS011;69594;43.516;1.498;2024-02-04T10:09:29;30.67;;;12.67;;
80293;SDS011;69594;43.516;1.498;2024-02-04T10:11:56;32.90;;;14.23;;
80293;SDS011;69594;43.516;1.498;2024-02-04T10:14:22;34.30;;;14.00;;
80293;SDS011;69594;43.516;1.498;2024-02-04T10:16:49;31.70;;;13.95;;
80293;SDS011;69594;43.516;1.498;2024-02-04T10:19:15;32.95;;;14.30;;
80293;SDS011;69594;43.516;1.498;2024-02-04T10:21:41;31.27;;;13.57;;
80293;SDS011;69594;43.516;1.498;2024-02-04T10:24:07;30.30;;;12.77;;
80293;SDS011;69594;43.516;1.498;2024-02-04T10:26:33;30.10;;;12.68;;
80293;SDS011;69594;43.516;1.498;2024-02-04T10:29:02;27.15;;;11.88;;
80293;SDS011;69594;43.516;1.498;2024-02-04T10:31:28;24.80;;;11.05;;
80293;SDS011;69594;43.516;1.498;2024-02-04T10:33:54;29.73;;;12.47;;
80293;SDS011;69594;43.516;1.498;2024-02-04T10:36:20;32.28;;;13.55;;
80293;SDS011;69594;43.516;1.498;2024-02-04T10:38:46;35.15;;;14.82;;
80293;SDS011;69594;43.516;1.498;2024-02-04T10:41:15;34.87;;;14.53;;
80293;SDS011;69594;43.516;1.498;2024-02-04T10:43:43;30.63;;;13.15;;
80293;SDS011;69594;43.516;1.498;2024-02-04T10:46:11;38.00;;;15.75;;
80293;SDS011;69594;43.516;1.498;2024-02-04T10:48:39;37.40;;;16.73;;
80293;SDS011;69594;43.516;1.498;2024-02-04T10:51:11;35.17;;;14.90;;
80293;SDS011;69594;43.516;1.498;2024-02-04T10:53:42;40.55;;;16.00;;
80293;SDS011;69594;43.516;1.498;2024-02-04T10:56:30;36.60;;;16.80;;
80293;SDS011;69594;43.516;1.498;2024-02-04T10:58:58;35.03;;;14.65;;
80293;SDS011;69594;43.516;1.498;2024-02-04T11:01:25;35.78;;;15.30;;
80293;SDS011;69594;43.516;1.498;2024-02-04T11:03:51;35.77;;;14.40;;
80293;SDS011;69594;43.516;1.498;2024-02-04T11:06:18;32.95;;;14.60;;
80293;SDS011;69594;43.516;1.498;2024-02-04T11:08:46;32.35;;;14.13;;
80293;SDS011;69594;43.516;1.498;2024-02-04T11:11:12;32.70;;;12.98;;
80293;SDS011;69594;43.516;1.498;2024-02-04T11:13:38;32.87;;;13.67;;
80293;SDS011;69594;43.516;1.498;2024-02-04T11:16:11;29.25;;;13.07;;
80293;SDS011;69594;43.516;1.498;2024-02-04T11:19:05;33.13;;;14.23;;
80293;SDS011;69594;43.516;1.498;2024-02-04T11:22:27;37.42;;;16.13;;
80293;SDS011;69594;43.516;1.498;2024-02-04T11:27:20;39.20;;;14.80;;
80293;SDS011;69594;43.516;1.498;2024-02-04T11:29:46;38.15;;;14.88;;
80293;SDS011;69594;43.516;1.498;2024-02-04T11:32:12;33.15;;;14.60;;
80293;SDS011;69594;43.516;1.498;2024-02-04T11:34:38;34.40;;;13.60;;
80293;SDS011;69594;43.516;1.498;2024-02-04T11:37:15;33.50;;;14.10;;
80293;SDS011;69594;43.516;1.498;2024-02-04T11:39:50;35.05;;;14.55;;
80293;SDS011;69594;43.516;1.498;2024-02-04T11:42:17;33.67;;;14.27;;
80293;SDS011;69594;43.516;1.498;2024-02-04T11:44:43;30.03;;;13.77;;
80293;SDS011;69594;43.516;1.498;2024-02-04T11:47:10;34.30;;;14.00;;
80293;SDS011;69594;43.516;1.498;2024-02-04T11:49:36;31.55;;;13.20;;
80293;SDS011;69594;43.516;1.498;2024-02-04T11:52:02;33.10;;;13.67;;
80293;SDS011;69594;43.516;1.498;2024-02-04T11:54:28;33.15;;;13.77;;
80293;SDS011;69594;43.516;1.498;2024-02-04T11:56:53;32.97;;;13.85;;
80293;SDS011;69594;43.516;1.498;2024-02-04T11:59:24;32.10;;;14.23;;
80293;SDS011;69594;43.516;1.498;2024-02-04T12:01:54;36.92;;;14.20;;
80293;SDS011;69594;43.516;1.498;2024-02-04T12:04:21;31.83;;;13.55;;
80293;SDS011;69594;43.516;1.498;2024-02-04T12:06:47;32.40;;;14.07;;
80293;SDS011;69594;43.516;1.498;2024-02-04T12:09:16;31.15;;;13.40;;
80293;SDS011;69594;43.516;1.498;2024-02-04T12:11:47;32.10;;;13.20;;
80293;SDS011;69594;43.516;1.498;2024-02-04T12:14:12;28.80;;;12.63;;
80293;SDS011;69594;43.516;1.498;2024-02-04T12:16:40;31.03;;;13.50;;
80293;SDS011;69594;43.516;1.498;2024-02-04T12:19:06;32.65;;;14.18;;
80293;SDS011;69594;43.516;1.498;2024-02-04T12:21:32;29.53;;;12.90;;
80293;SDS011;69594;43.516;1.498;2024-02-04T12:23:58;28.85;;;13.13;;
80293;SDS011;69594;43.516;1.498;2024-02-04T12:26:25;29.20;;;12.40;;
80293;SDS011;69594;43.516;1.498;2024-02-04T12:28:50;25.83;;;12.07;;
80293;SDS011;69594;43.516;1.498;2024-02-04T12:31:19;26.10;;;11.30;;
80293;SDS011;69594;43.516;1.498;2024-02-04T12:33:52;27.27;;;11.93;;
80293;SDS011;69594;43.516;1.498;2024-02-04T12:36:20;25.87;;;12.30;;
80293;SDS011;69594;43.516;1.498;2024-02-04T12:38:55;27.67;;;13.15;;
80293;SDS011;69594;43.516;1.498;2024-02-04T12:41:22;28.48;;;13.18;;
80293;SDS011;69594;43.516;1.498;2024-02-04T12:43:49;27.92;;;12.88;;
80293;SDS011;69594;43.516;1.498;2024-02-04T12:46:14;23.42;;;12.18;;
80293;SDS011;69594;43.516;1.498;2024-02-04T12:48:40;25.55;;;11.43;;
80293;SDS011;69594;43.516;1.498;2024-02-04T12:51:06;24.67;;;11.83;;
80293;SDS011;69594;43.516;1.498;2024-02-04T12:53:31;27.40;;;12.35;;
80293;SDS011;69594;43.516;1.498;2024-02-04T12:55:58;23.90;;;11.57;;
80293;SDS011;69594;43.516;1.498;2024-02-04T12:58:24;27.40;;;12.73;;
80293;SDS011;69594;43.516;1.498;2024-02-04T13:00:58;25.50;;;12.10;;
80293;SDS011;69594;43.516;1.498;2024-02-04T13:03:24;24.58;;;12.50;;
80293;SDS011;69594;43.516;1.498;2024-02-04T13:05:50;23.40;;;12.03;;
80293;SDS011;69594;43.516;1.498;2024-02-04T13:08:18;23.83;;;12.45;;
80293;SDS011;69594;43.516;1.498;2024-02-04T13:10:43;18.98;;;9.55;;
80293;SDS011;69594;43.516;1.498;2024-02-04T13:13:11;21.35;;;10.95;;
80293;SDS011;69594;43.516;1.498;2024-02-04T13:15:44;21.55;;;11.05;;
80293;SDS011;69594;43.516;1.498;2024-02-04T13:18:10;20.08;;;10.65;;
80293;SDS011;69594;43.516;1.498;2024-02-04T13:20:37;20.08;;;10.35;;
80293;SDS011;69594;43.516;1.498;2024-02-04T13:23:03;23.75;;;10.23;;
80293;SDS011;69594;43.516;1.498;2024-02-04T13:25:32;25.33;;;11.65;;
80293;SDS011;69594;43.516;1.498;2024-02-04T13:27:59;24.90;;;12.10;;
80293;SDS011;69594;43.516;1.498;2024-02-04T13:30:25;19.77;;;9.80;;
80293;SDS011;69594;43.516;1.498;2024-02-04T13:32:50;23.03;;;11.93;;
80293;SDS011;69594;43.516;1.498;2024-02-04T13:35:16;20.35;;;10.05;;
80293;SDS011;69594;43.516;1.498;2024-02-04T13:37:43;18.77;;;9.97;;
80293;SDS011;69594;43.516;1.498;2024-02-04T13:40:19;17.08;;;9.02;;
80293;SDS011;69594;43.516;1.498;2024-02-04T13:42:44;18.95;;;9.25;;
80293;SDS011;69594;43.516;1.498;2024-02-04T13:45:10;15.83;;;8.67;;
80293;SDS011;69594;43.516;1.498;2024-02-04T13:47:39;17.90;;;8.48;;
80293;SDS011;69594;43.516;1.498;2024-02-04T13:50:05;20.25;;;9.77;;
80293;SDS011;69594;43.516;1.498;2024-02-04T13:52:33;20.17;;;9.70;;
80293;SDS011;69594;43.516;1.498;2024-02-04T13:54:59;17.50;;;9.43;;
80293;SDS011;69594;43.516;1.498;2024-02-04T13:57:24;19.27;;;11.10;;
80293;SDS011;69594;43.516;1.498;2024-02-04T13:59:50;20.23;;;10.60;;
80293;SDS011;69594;43.516;1.498;2024-02-04T14:02:15;19.40;;;10.30;;
80293;SDS011;69594;43.516;1.498;2024-02-04T14:04:41;19.17;;;9.50;;
80293;SDS011;69594;43.516;1.498;2024-02-04T14:07:07;18.33;;;9.43;;
80293;SDS011;69594;43.516;1.498;2024-02-04T14:09:34;17.17;;;8.70;;
80293;SDS011;69594;43.516;1.498;2024-02-04T14:11:59;16.70;;;8.60;;
80293;SDS011;69594;43.516;1.498;2024-02-04T14:14:24;14.23;;;7.47;;
80293;SDS011;69594;43.516;1.498;2024-02-04T14:16:50;15.43;;;7.60;;
80293;SDS011;69594;43.516;1.498;2024-02-04T14:19:16;18.85;;;9.73;;
80293;SDS011;69594;43.516;1.498;2024-02-04T14:21:42;17.53;;;9.10;;
80293;SDS011;69594;43.516;1.498;2024-02-04T14:24:08;13.85;;;7.80;;
80293;SDS011;69594;43.516;1.498;2024-02-04T14:26:34;15.38;;;8.50;;
80293;SDS011;69594;43.516;1.498;2024-02-04T14:28:59;16.17;;;9.00;;